Time;durP1;ratioP1;P1;durP2;ratioP2;P2;SDS_P1;SDS_P2;PMS_P1;PMS_P2;Temp;Humidity;BMP_temperature;BMP_pressure;BME280_temperature;BME280_humidity;BME280_pressure;Samples;Min_cycle;Max_cycle;Signal;HPM_P1;HPM_P2
2022/12/09 00:01:50;;;;;;;19.87;15.53;;;0.50;99.90;;;;;;5012673;28;20482;-56
2022/12/09 00:04:18;;;;;;;20.77;16.20;;;0.50;99.90;;;;;;5013155;28;20468;-56
2022/12/09 00:06:46;;;;;;;24.80;15.93;;;0.60;99.90;;;;;;5012784;28;20504;-56
2022/12/09 00:09:16;;;;;;;25.27;15.07;;;0.60;99.90;;;;;;5013364;28;21030;-56
2022/12/09 00:11:45;;;;;;;20.03;15.63;;;0.60;99.90;;;;;;5012769;28;20817;-56
2022/12/09 00:14:13;;;;;;;22.00;17.43;;;0.50;99.90;;;;;;5012908;28;20471;-56
2022/12/09 00:16:41;;;;;;;20.83;16.33;;;0.50;99.90;;;;;;5012992;28;20468;-56
2022/12/09 00:19:10;;;;;;;21.43;16.13;;;0.50;99.90;;;;;;5013292;28;20506;-57
2022/12/09 00:21:38;;;;;;;28.47;18.10;;;0.70;99.90;;;;;;5012950;28;20534;-56
2022/12/09 00:24:09;;;;;;;23.47;16.83;;;0.70;99.90;;;;;;5013293;28;20471;-56
2022/12/09 00:26:40;;;;;;;25.30;18.63;;;0.70;99.90;;;;;;5012558;28;20484;-57
2022/12/09 00:29:08;;;;;;;26.73;17.57;;;0.70;99.90;;;;;;5013149;28;20563;-57
2022/12/09 00:31:38;;;;;;;26.57;17.93;;;0.70;99.90;;;;;;5011025;28;20479;-57
2022/12/09 00:34:10;;;;;;;26.57;19.90;;;0.90;99.90;;;;;;5012693;28;20468;-56
2022/12/09 00:36:39;;;;;;;25.03;18.90;;;0.80;99.90;;;;;;5011447;28;20468;-54
2022/12/09 00:39:07;;;;;;;26.90;19.40;;;0.70;99.90;;;;;;5013030;28;20488;-56
2022/12/09 00:41:35;;;;;;;25.53;19.80;;;0.60;99.90;;;;;;5011394;28;20472;-57
2022/12/09 00:44:05;;;;;;;25.80;19.53;;;0.60;99.90;;;;;;5011510;28;20572;-55
2022/12/09 00:46:34;;;;;;;30.60;18.57;;;0.70;99.90;;;;;;5012839;28;20511;-57
2022/12/09 00:49:04;;;;;;;28.07;19.83;;;0.70;99.90;;;;;;5012793;28;21226;-57
2022/12/09 00:51:32;;;;;;;26.10;18.93;;;0.70;99.90;;;;;;5012389;28;20492;-56
2022/12/09 00:54:01;;;;;;;27.53;20.20;;;0.70;99.90;;;;;;5011399;28;20500;-56
2022/12/09 00:56:30;;;;;;;24.83;17.60;;;0.70;99.90;;;;;;5013929;28;20473;-57
2022/12/09 00:59:00;;;;;;;27.67;19.13;;;0.60;99.90;;;;;;5015591;28;20460;-57
2022/12/09 01:01:30;;;;;;;27.20;19.30;;;0.80;99.90;;;;;;5014684;28;20484;-56
2022/12/09 01:03:58;;;;;;;25.87;18.37;;;0.80;99.90;;;;;;5015125;28;20476;-56
2022/12/09 01:06:27;;;;;;;27.23;19.43;;;0.80;99.90;;;;;;5016040;28;20496;-57
2022/12/09 01:08:55;;;;;;;28.97;20.53;;;0.80;99.90;;;;;;5016663;28;20468;-55
2022/12/09 01:11:26;;;;;;;30.00;20.63;;;0.80;99.90;;;;;;5016505;28;20606;-57
2022/12/09 01:13:56;;;;;;;27.97;21.17;;;0.70;99.90;;;;;;5016530;28;20832;-57
2022/12/09 01:16:26;;;;;;;27.37;18.83;;;0.70;99.90;;;;;;5016199;28;20462;-57
2022/12/09 01:18:59;;;;;;;29.70;21.53;;;0.90;99.90;;;;;;5016154;28;20464;-56
2022/12/09 01:21:28;;;;;;;30.73;20.93;;;0.90;99.90;;;;;;5015846;28;20465;-57
2022/12/09 01:23:56;;;;;;;26.57;20.20;;;0.80;99.90;;;;;;4996335;28;20568;-56
2022/12/09 01:26:25;;;;;;;31.03;20.83;;;0.90;99.90;;;;;;5012967;28;20806;-56
2022/12/09 01:28:55;;;;;;;28.83;20.80;;;0.90;99.90;;;;;;5015981;28;20972;-56
2022/12/09 01:31:25;;;;;;;33.33;22.63;;;0.90;99.90;;;;;;5015508;28;20480;-57
2022/12/09 01:33:56;;;;;;;31.40;22.70;;;0.90;99.90;;;;;;5015975;28;20531;-56
2022/12/09 01:36:27;;;;;;;33.43;22.60;;;1.00;99.90;;;;;;5014745;28;20480;-57
2022/12/09 01:38:57;;;;;;;32.33;21.73;;;0.90;99.90;;;;;;5015839;28;20451;-56
2022/12/09 01:41:27;;;;;;;30.50;22.00;;;0.90;99.90;;;;;;5014232;28;20460;-56
2022/12/09 01:44:15;;;;;;;33.47;22.30;;;0.90;99.90;;;;;;5015818;28;20554;-56
2022/12/09 01:46:44;;;;;;;34.57;22.87;;;0.90;99.90;;;;;;5015607;28;20537;-56
2022/12/09 01:49:18;;;;;;;32.80;22.83;;;0.90;99.90;;;;;;5014414;28;20460;-57
2022/12/09 01:51:52;;;;;;;32.43;22.27;;;0.80;99.90;;;;;;5015341;28;20457;-57
2022/12/09 01:54:21;;;;;;;30.87;20.33;;;0.80;99.90;;;;;;5015560;28;20824;-56
2022/12/09 01:56:49;;;;;;;37.40;24.13;;;0.80;99.90;;;;;;5011375;28;20465;-57
2022/12/09 01:59:17;;;;;;;31.07;22.70;;;0.80;99.90;;;;;;5014230;28;20487;-57
2022/12/09 02:01:50;;;;;;;30.27;21.03;;;0.70;99.90;;;;;;5013483;28;20465;-55
2022/12/09 02:04:19;;;;;;;31.67;21.50;;;0.70;99.90;;;;;;5015367;28;20468;-56
2022/12/09 02:06:48;;;;;;;33.60;21.57;;;0.70;99.90;;;;;;5013687;28;20499;-57
2022/12/09 02:09:18;;;;;;;31.23;21.07;;;0.70;99.90;;;;;;5013113;28;20476;-56
2022/12/09 02:12:03;;;;;;;32.97;21.97;;;0.60;99.90;;;;;;5013614;28;20480;-57
2022/12/09 02:14:35;;;;;;;31.13;21.33;;;0.60;99.90;;;;;;5015060;28;20975;-57
2022/12/09 02:17:21;;;;;;;31.37;20.97;;;0.50;99.90;;;;;;5013899;28;20476;-57
2022/12/09 02:20:00;;;;;;;30.73;20.30;;;0.50;99.90;;;;;;5014544;28;20456;-56
2022/12/09 02:22:33;;;;;;;35.70;22.77;;;0.40;99.90;;;;;;5013576;28;20921;-55
2022/12/09 02:25:10;;;;;;;30.40;21.53;;;0.40;99.90;;;;;;5014837;28;20472;-56
2022/12/09 02:27:47;;;;;;;30.73;20.97;;;0.40;99.90;;;;;;5013337;28;21026;-57
2022/12/09 02:30:19;;;;;;;30.63;21.43;;;0.40;99.90;;;;;;5013166;28;20890;-56
2022/12/09 02:33:13;;;;;;;28.37;19.10;;;0.40;99.90;;;;;;5012349;28;20994;-57
2022/12/09 02:35:48;;;;;;;32.53;19.87;;;0.40;99.90;;;;;;5006310;28;20493;-56
2022/12/09 02:38:22;;;;;;;33.10;20.20;;;0.40;99.90;;;;;;5013560;28;20474;-57
2022/12/09 02:40:55;;;;;;;29.90;20.57;;;0.40;99.90;;;;;;5013264;28;20471;-56
2022/12/09 02:43:25;;;;;;;29.73;19.97;;;0.30;99.90;;;;;;5013412;28;20503;-56
2022/12/09 02:45:57;;;;;;;33.50;21.33;;;0.40;99.90;;;;;;5013317;28;20518;-57
2022/12/09 02:48:32;;;;;;;32.27;20.80;;;0.40;99.90;;;;;;5012863;28;20520;-57
2022/12/09 02:51:04;;;;;;;32.57;20.50;;;0.40;99.90;;;;;;5013262;28;21156;-57
2022/12/09 02:53:33;;;;;;;29.10;20.60;;;0.50;99.90;;;;;;5014527;28;20479;-57
2022/12/09 02:56:05;;;;;;;32.23;21.27;;;0.50;99.90;;;;;;5013034;28;20491;-57
2022/12/09 02:58:34;;;;;;;31.17;21.00;;;0.50;99.90;;;;;;5012955;28;20508;-56
2022/12/09 03:01:03;;;;;;;32.27;20.10;;;0.60;99.90;;;;;;5012493;28;20476;-57
2022/12/09 03:03:33;;;;;;;31.47;21.40;;;0.60;99.90;;;;;;5014032;28;20468;-56
2022/12/09 03:06:08;;;;;;;32.27;21.43;;;0.50;99.90;;;;;;5014252;28;20492;-56
2022/12/09 03:08:46;;;;;;;31.83;20.77;;;0.50;99.90;;;;;;5014289;28;20483;-56
2022/12/09 03:11:16;;;;;;;31.97;21.43;;;0.50;99.90;;;;;;5013938;28;20511;-56
2022/12/09 03:13:51;;;;;;;28.37;20.17;;;0.40;99.90;;;;;;5013928;28;20483;-57
2022/12/09 03:16:25;;;;;;;30.90;20.47;;;0.50;99.90;;;;;;5014218;28;20967;-56
2022/12/09 03:18:59;;;;;;;30.70;19.70;;;0.40;99.90;;;;;;5013978;28;20474;-56
2022/12/09 03:21:31;;;;;;;28.80;19.73;;;0.30;99.90;;;;;;5014063;28;20519;-57
2022/12/09 03:24:01;;;;;;;26.40;18.27;;;0.30;99.90;;;;;;5014148;28;20829;-56
2022/12/09 03:26:32;;;;;;;30.53;19.90;;;0.30;99.90;;;;;;5013813;28;20860;-57
2022/12/09 03:29:03;;;;;;;29.60;19.93;;;0.30;99.90;;;;;;5013767;28;20464;-57
2022/12/09 03:31:34;;;;;;;30.57;20.43;;;0.30;99.90;;;;;;5013257;28;20476;-56
2022/12/09 03:34:05;;;;;;;31.57;20.03;;;0.30;99.90;;;;;;5013559;28;20538;-57
2022/12/09 03:36:38;;;;;;;28.30;19.37;;;0.30;99.90;;;;;;5013762;28;20475;-56
2022/12/09 03:39:09;;;;;;;31.03;19.57;;;0.30;99.90;;;;;;5013566;28;20943;-57
2022/12/09 03:41:41;;;;;;;29.57;20.20;;;0.20;99.90;;;;;;5013329;28;20990;-57
2022/12/09 03:44:13;;;;;;;31.10;19.87;;;0.20;99.90;;;;;;4994040;28;20915;-56
2022/12/09 03:46:41;;;;;;;27.73;19.30;;;0.10;99.90;;;;;;4994153;28;20480;-57
2022/12/09 03:49:11;;;;;;;29.57;19.23;;;0.20;99.90;;;;;;5009224;28;20479;-57
2022/12/09 03:51:44;;;;;;;22.50;16.10;;;0.10;99.90;;;;;;5013510;28;20511;-56
2022/12/09 03:54:20;;;;;;;27.57;17.73;;;0.30;99.90;;;;;;5013830;28;20487;-56
2022/12/09 03:56:53;;;;;;;29.83;19.47;;;0.20;99.90;;;;;;5010348;28;20562;-56
2022/12/09 03:59:23;;;;;;;30.57;19.33;;;0.00;99.90;;;;;;5013566;28;20559;-57
2022/12/09 04:01:52;;;;;;;31.27;20.20;;;0.00;99.90;;;;;;5012795;28;20473;-55
2022/12/09 04:04:21;;;;;;;31.03;19.93;;;0.00;99.90;;;;;;5013602;28;20526;-56
2022/12/09 04:06:53;;;;;;;29.97;19.20;;;0.10;99.90;;;;;;5013073;28;20579;-56
2022/12/09 04:09:22;;;;;;;28.87;19.50;;;0.00;99.90;;;;;;5013091;28;20468;-56
2022/12/09 04:11:51;;;;;;;29.97;20.03;;;0.00;99.90;;;;;;5012894;28;20468;-57
2022/12/09 04:14:20;;;;;;;27.73;18.33;;;-0.10;99.90;;;;;;5013100;28;20993;-56
2022/12/09 04:16:48;;;;;;;27.43;18.20;;;-0.10;99.90;;;;;;5012897;28;20468;-57
2022/12/09 04:19:16;;;;;;;27.87;19.37;;;-0.10;99.90;;;;;;5013039;28;20460;-56
2022/12/09 04:21:44;;;;;;;27.27;18.77;;;-0.10;99.90;;;;;;5012375;28;20474;-57
2022/12/09 04:24:13;;;;;;;27.10;18.30;;;-0.20;99.90;;;;;;5012940;28;20476;-56
2022/12/09 04:26:41;;;;;;;28.80;18.87;;;-0.20;99.90;;;;;;5012643;28;20978;-57
2022/12/09 04:29:10;;;;;;;25.47;17.77;;;-0.10;99.90;;;;;;5009269;28;20495;-56
2022/12/09 04:31:39;;;;;;;21.97;15.17;;;0.00;99.90;;;;;;5011832;28;20503;-57
2022/12/09 04:34:07;;;;;;;28.40;18.73;;;0.10;99.90;;;;;;5013039;28;20494;-57
2022/12/09 04:36:37;;;;;;;24.87;17.73;;;0.20;99.90;;;;;;5012767;28;20463;-57
2022/12/09 04:39:06;;;;;;;27.20;18.33;;;0.20;99.90;;;;;;5012815;28;20503;-57
2022/12/09 04:41:36;;;;;;;24.97;18.23;;;0.20;99.90;;;;;;5012760;28;20461;-57
2022/12/09 04:44:04;;;;;;;28.17;18.43;;;0.20;99.90;;;;;;5012996;28;20483;-57
2022/12/09 04:46:33;;;;;;;26.90;18.43;;;0.30;99.90;;;;;;5012554;28;20472;-57
2022/12/09 04:49:02;;;;;;;25.87;16.53;;;0.30;99.90;;;;;;5012500;28;20490;-57
2022/12/09 04:51:30;;;;;;;29.27;19.93;;;0.40;99.90;;;;;;5012702;28;20460;-57
2022/12/09 04:54:06;;;;;;;29.00;20.67;;;0.40;99.90;;;;;;5013027;28;20483;-57
2022/12/09 04:56:36;;;;;;;27.97;19.93;;;0.40;99.90;;;;;;5012795;28;20464;-56
2022/12/09 04:59:05;;;;;;;31.97;22.03;;;0.40;99.90;;;;;;5012953;28;20500;-57
2022/12/09 05:01:33;;;;;;;30.53;21.47;;;0.40;99.90;;;;;;5012164;28;20571;-56
2022/12/09 05:04:02;;;;;;;29.93;21.17;;;0.40;99.90;;;;;;5012389;28;20508;-56
2022/12/09 05:06:31;;;;;;;32.10;21.70;;;0.40;99.90;;;;;;5012478;28;20983;-57
2022/12/09 05:08:59;;;;;;;30.37;20.77;;;0.40;99.90;;;;;;5012945;28;20484;-57
2022/12/09 05:11:28;;;;;;;30.10;21.00;;;0.40;99.90;;;;;;5012652;28;20496;-57
2022/12/09 05:13:58;;;;;;;29.90;20.77;;;0.50;99.90;;;;;;5012498;28;20856;-55
2022/12/09 05:16:26;;;;;;;29.70;21.10;;;0.40;99.90;;;;;;5012498;28;20526;-55
2022/12/09 05:18:55;;;;;;;30.03;20.33;;;0.40;99.90;;;;;;5012259;28;20560;-57
2022/12/09 05:21:23;;;;;;;28.83;19.77;;;0.40;99.90;;;;;;5012896;28;20464;-57
2022/12/09 05:23:51;;;;;;;32.57;22.57;;;0.40;99.90;;;;;;5012659;28;20888;-56
2022/12/09 05:26:21;;;;;;;32.40;21.97;;;0.50;99.90;;;;;;5012186;28;20463;-57
2022/12/09 05:28:51;;;;;;;32.17;21.93;;;0.50;99.90;;;;;;5012109;28;20486;-55
2022/12/09 05:31:22;;;;;;;32.00;22.63;;;0.50;99.90;;;;;;5012135;28;20900;-57
2022/12/09 05:33:52;;;;;;;29.87;20.70;;;0.50;99.90;;;;;;5010002;28;20476;-57
2022/12/09 05:36:24;;;;;;;32.70;22.63;;;0.90;99.90;;;;;;5012110;28;20460;-57
2022/12/09 05:38:53;;;;;;;32.57;21.63;;;1.00;99.90;;;;;;5012103;28;20483;-56
2022/12/09 05:41:23;;;;;;;33.37;22.07;;;0.80;99.90;;;;;;5012097;28;20464;-57
2022/12/09 05:43:51;;;;;;;34.53;22.73;;;0.90;99.90;;;;;;5014061;28;20479;-55
2022/12/09 05:46:21;;;;;;;36.20;24.80;;;0.80;99.90;;;;;;5016031;28;20470;-57
2022/12/09 05:48:50;;;;;;;38.30;22.97;;;0.70;99.90;;;;;;5015719;28;20491;-57
2022/12/09 05:51:23;;;;;;;35.10;24.07;;;1.10;99.90;;;;;;5015642;28;20473;-56
2022/12/09 05:53:51;;;;;;;35.80;22.53;;;1.00;99.90;;;;;;5015638;28;20453;-57
2022/12/09 05:56:22;;;;;;;40.27;24.83;;;1.50;99.90;;;;;;5015218;28;20825;-57
2022/12/09 05:58:52;;;;;;;42.37;25.63;;;1.60;99.90;;;;;;5015734;28;20476;-57
2022/12/09 06:01:23;;;;;;;37.63;23.50;;;1.10;99.90;;;;;;5015148;28;20838;-57
2022/12/09 06:03:53;;;;;;;37.30;24.77;;;0.80;99.90;;;;;;5015606;28;20472;-56
2022/12/09 06:06:28;;;;;;;39.17;23.87;;;0.80;99.90;;;;;;5015368;28;20885;-57
2022/12/09 06:08:59;;;;;;;37.97;22.83;;;1.00;99.90;;;;;;5015594;28;20542;-56
2022/12/09 06:11:28;;;;;;;34.43;21.60;;;0.90;99.90;;;;;;5015052;28;20464;-57
2022/12/09 06:13:57;;;;;;;36.53;23.20;;;1.10;99.90;;;;;;5015245;28;20860;-56
2022/12/09 06:16:26;;;;;;;35.60;21.20;;;1.20;99.90;;;;;;5015413;28;20494;-57
2022/12/09 06:18:55;;;;;;;33.70;20.20;;;1.40;99.90;;;;;;5015681;28;20569;-57
2022/12/09 06:21:24;;;;;;;37.70;20.73;;;1.20;99.90;;;;;;5013886;28;20471;-57
2022/12/09 06:23:53;;;;;;;39.83;23.63;;;1.20;99.90;;;;;;5015266;28;20464;-56
2022/12/09 06:26:24;;;;;;;36.70;23.10;;;1.20;99.90;;;;;;5014806;28;20547;-57
2022/12/09 06:28:53;;;;;;;36.13;23.20;;;1.00;99.90;;;;;;5014394;28;20523;-56
2022/12/09 06:31:22;;;;;;;39.10;23.07;;;1.00;99.90;;;;;;5010339;28;20492;-56
2022/12/09 06:33:52;;;;;;;41.83;24.57;;;1.20;99.90;;;;;;5008958;28;20984;-57
2022/12/09 06:36:24;;;;;;;41.20;24.70;;;1.00;99.90;;;;;;5004806;28;20457;-57
2022/12/09 06:38:53;;;;;;;37.33;23.37;;;1.10;99.90;;;;;;5005730;28;20467;-57
2022/12/09 06:41:21;;;;;;;38.40;23.23;;;0.90;99.90;;;;;;5003888;28;20489;-57
2022/12/09 06:43:50;;;;;;;37.67;22.20;;;0.80;99.90;;;;;;5005354;28;20479;-55
2022/12/09 06:46:21;;;;;;;35.13;23.20;;;0.80;99.90;;;;;;5005277;28;20515;-57
2022/12/09 06:48:52;;;;;;;36.37;22.33;;;1.00;99.90;;;;;;5005958;28;21078;-57
2022/12/09 06:51:22;;;;;;;34.93;21.70;;;0.70;99.90;;;;;;5004274;28;21183;-56
2022/12/09 06:53:50;;;;;;;34.83;22.23;;;0.60;99.90;;;;;;5004707;28;20492;-56
2022/12/09 06:56:19;;;;;;;30.83;20.80;;;0.50;99.90;;;;;;5005794;28;20514;-57
2022/12/09 06:58:47;;;;;;;34.40;22.63;;;0.40;99.90;;;;;;5013924;28;20524;-57
2022/12/09 07:01:17;;;;;;;33.93;21.93;;;0.40;99.90;;;;;;5012482;28;20837;-56
2022/12/09 07:03:48;;;;;;;31.90;21.30;;;0.30;99.90;;;;;;5014256;28;20501;-55
2022/12/09 07:06:27;;;;;;;34.03;20.97;;;0.30;99.90;;;;;;5014096;28;20485;-57
2022/12/09 07:08:57;;;;;;;32.93;20.87;;;0.50;99.90;;;;;;5014256;28;20480;-57
2022/12/09 07:11:26;;;;;;;30.07;19.37;;;0.40;99.90;;;;;;5012564;28;20464;-57
2022/12/09 07:13:54;;;;;;;30.17;19.20;;;0.50;99.90;;;;;;5014288;28;21047;-57
2022/12/09 07:16:22;;;;;;;33.33;18.97;;;0.30;99.90;;;;;;5013986;28;20500;-57
2022/12/09 07:18:50;;;;;;;30.93;20.63;;;0.10;99.90;;;;;;5014267;28;20531;-57
2022/12/09 07:21:22;;;;;;;31.87;20.40;;;0.00;99.90;;;;;;5012311;28;20507;-57
2022/12/09 07:23:50;;;;;;;32.17;21.43;;;0.00;99.90;;;;;;5014026;28;20475;-57
2022/12/09 07:26:19;;;;;;;33.50;21.53;;;0.00;99.90;;;;;;5013690;28;20572;-57
2022/12/09 07:28:49;;;;;;;32.60;19.47;;;-0.10;99.90;;;;;;5013885;28;20542;-56
2022/12/09 07:31:19;;;;;;;29.33;20.17;;;0.00;99.90;;;;;;5011306;28;20476;-56
2022/12/09 07:33:49;;;;;;;31.97;20.60;;;-0.10;99.90;;;;;;5013647;28;20967;-56
2022/12/09 07:36:17;;;;;;;31.43;20.13;;;-0.10;99.90;;;;;;5013918;28;20503;-56
2022/12/09 07:38:54;;;;;;;30.90;19.67;;;-0.10;99.90;;;;;;5013748;28;21030;-56
2022/12/09 07:41:22;;;;;;;28.23;18.67;;;-0.10;99.90;;;;;;5011973;28;20832;-57
2022/12/09 07:43:51;;;;;;;30.63;19.47;;;0.00;99.90;;;;;;5006051;28;20487;-56
2022/12/09 07:46:21;;;;;;;30.37;19.53;;;-0.10;99.90;;;;;;5003913;28;20476;-57
2022/12/09 07:48:50;;;;;;;29.37;19.40;;;-0.10;99.90;;;;;;5004019;28;20468;-57
2022/12/09 07:51:18;;;;;;;28.50;18.47;;;-0.10;99.90;;;;;;5002873;28;20570;-56
2022/12/09 07:53:47;;;;;;;28.87;19.10;;;-0.10;99.90;;;;;;5003995;28;20522;-57
2022/12/09 07:56:17;;;;;;;34.33;19.37;;;-0.10;99.90;;;;;;5004870;28;20476;-57
2022/12/09 07:58:47;;;;;;;29.43;19.13;;;-0.10;99.90;;;;;;5004499;28;20956;-56
2022/12/09 08:01:17;;;;;;;33.33;20.43;;;-0.20;99.90;;;;;;5003788;28;20852;-57
2022/12/09 08:03:47;;;;;;;31.07;20.27;;;-0.20;99.90;;;;;;5004042;28;21356;-57
2022/12/09 08:06:17;;;;;;;33.77;20.87;;;-0.10;99.90;;;;;;5004152;28;20480;-56
2022/12/09 08:08:46;;;;;;;33.70;21.53;;;-0.20;99.90;;;;;;5005052;28;20465;-56
2022/12/09 08:11:16;;;;;;;30.87;20.00;;;-0.10;99.90;;;;;;5003427;28;20540;-57
2022/12/09 08:13:46;;;;;;;30.17;20.90;;;-0.10;99.90;;;;;;5005529;28;20491;-57
2022/12/09 08:16:17;;;;;;;30.27;20.13;;;-0.10;99.90;;;;;;5005985;28;20594;-57
2022/12/09 08:18:46;;;;;;;29.67;20.27;;;-0.10;99.90;;;;;;5005990;28;20559;-56
2022/12/09 08:21:16;;;;;;;30.20;18.60;;;0.00;99.90;;;;;;5005002;28;20891;-57
2022/12/09 08:23:45;;;;;;;25.70;17.10;;;0.00;99.90;;;;;;5003640;28;20606;-56
2022/12/09 08:26:15;;;;;;;28.43;19.47;;;0.10;99.90;;;;;;5004979;28;20558;-57
2022/12/09 08:28:44;;;;;;;28.50;16.83;;;0.10;99.90;;;;;;5004538;28;20464;-56
2022/12/09 08:31:15;;;;;;;27.13;16.97;;;0.30;99.90;;;;;;5002882;28;20489;-56
2022/12/09 08:33:44;;;;;;;31.23;18.87;;;0.20;99.90;;;;;;5004524;28;21509;-58
2022/12/09 08:36:14;;;;;;;25.53;16.33;;;0.20;99.90;;;;;;5004401;28;20467;-57
2022/12/09 08:38:43;;;;;;;30.13;19.13;;;0.20;99.90;;;;;;5004334;28;20479;-55
2022/12/09 08:41:12;;;;;;;33.80;19.50;;;0.20;99.90;;;;;;5003817;28;20476;-56
2022/12/09 08:43:42;;;;;;;32.90;20.07;;;0.20;99.90;;;;;;5005219;28;20550;-56
2022/12/09 08:46:11;;;;;;;29.47;18.97;;;0.20;99.90;;;;;;5005598;28;20477;-56
2022/12/09 08:48:42;;;;;;;31.37;19.03;;;0.20;99.90;;;;;;5005415;28;20496;-55
2022/12/09 08:51:11;;;;;;;32.53;19.60;;;0.20;99.90;;;;;;5004254;28;20538;-57
2022/12/09 08:53:40;;;;;;;31.97;19.63;;;0.20;99.90;;;;;;5005582;28;20817;-57
2022/12/09 08:56:11;;;;;;;31.17;18.50;;;0.20;99.90;;;;;;5004925;28;21024;-57
2022/12/09 08:58:40;;;;;;;33.80;19.30;;;0.20;99.90;;;;;;5004939;28;20847;-56
2022/12/09 09:01:15;;;;;;;31.07;19.30;;;0.30;99.90;;;;;;5003698;28;20484;-56
2022/12/09 09:03:46;;;;;;;32.27;18.33;;;0.30;99.90;;;;;;5005295;28;20474;-58
2022/12/09 09:06:16;;;;;;;33.83;20.40;;;0.30;99.90;;;;;;5005517;28;20546;-57
2022/12/09 09:08:45;;;;;;;32.83;19.80;;;0.30;99.90;;;;;;5005722;28;21087;-60
2022/12/09 09:11:18;;;;;;;31.10;19.10;;;0.30;99.90;;;;;;5002508;28;21019;-60
2022/12/09 09:13:50;;;;;;;33.20;20.00;;;0.30;99.90;;;;;;5003617;28;20834;-60
2022/12/09 09:16:21;;;;;;;41.27;23.33;;;0.30;99.90;;;;;;5003528;28;20464;-60
2022/12/09 09:18:51;;;;;;;36.93;22.60;;;0.30;99.90;;;;;;5006720;28;20476;-67
2022/12/09 09:21:22;;;;;;;38.90;23.07;;;0.40;99.90;;;;;;5006335;28;20495;-64
2022/12/09 09:23:51;;;;;;;36.83;21.53;;;0.40;99.90;;;;;;5007234;28;20460;-61
2022/12/09 09:26:21;;;;;;;37.77;22.80;;;0.50;99.90;;;;;;5007432;28;20464;-61
2022/12/09 09:28:50;;;;;;;33.93;20.73;;;0.50;99.90;;;;;;5007003;28;20486;-61
2022/12/09 09:31:21;;;;;;;35.50;20.47;;;0.50;99.90;;;;;;5006299;28;20476;-61
2022/12/09 09:33:51;;;;;;;33.87;21.10;;;0.50;99.90;;;;;;5007294;28;20467;-61
2022/12/09 09:36:23;;;;;;;39.20;22.27;;;0.60;99.90;;;;;;5007060;28;20472;-60
2022/12/09 09:38:53;;;;;;;37.17;21.27;;;0.70;99.90;;;;;;5007862;28;20490;-61
2022/12/09 09:41:30;;;;;;;37.33;22.80;;;0.90;99.90;;;;;;5005850;28;20841;-61
2022/12/09 09:44:00;;;;;;;40.60;23.07;;;0.90;99.90;;;;;;5007267;28;20486;-61
2022/12/09 09:46:36;;;;;;;36.63;22.57;;;0.80;99.90;;;;;;5007420;28;20504;-61
2022/12/09 09:49:12;;;;;;;33.30;20.70;;;0.80;99.90;;;;;;5008135;28;20565;-62
2022/12/09 09:51:40;;;;;;;33.50;21.00;;;0.80;99.90;;;;;;5006055;28;20496;-61
2022/12/09 09:54:11;;;;;;;33.17;20.07;;;0.80;99.90;;;;;;5006997;28;20468;-62
2022/12/09 09:56:45;;;;;;;33.43;21.00;;;0.80;99.90;;;;;;5008032;28;20494;-62
2022/12/09 09:59:22;;;;;;;32.13;19.57;;;0.90;99.90;;;;;;5007702;28;20472;-62
2022/12/09 10:01:58;;;;;;;34.17;22.07;;;1.00;99.90;;;;;;5006295;28;20487;-62
2022/12/09 10:04:37;;;;;;;32.07;19.07;;;0.90;99.90;;;;;;5007798;28;20475;-61
2022/12/09 10:07:13;;;;;;;37.77;22.27;;;1.00;99.90;;;;;;5007810;28;21013;-62
2022/12/09 10:09:48;;;;;;;39.23;22.47;;;0.90;99.90;;;;;;5007811;28;20999;-62
2022/12/09 10:12:25;;;;;;;32.80;19.67;;;1.00;99.90;;;;;;5007062;28;20488;-62
2022/12/09 10:14:59;;;;;;;35.83;21.03;;;1.00;99.90;;;;;;5008112;28;20483;-62
2022/12/09 10:17:32;;;;;;;35.97;21.20;;;1.20;99.90;;;;;;5007600;28;20488;-60
2022/12/09 10:20:10;;;;;;;36.23;22.50;;;1.20;99.90;;;;;;5007201;28;20519;-62
2022/12/09 10:22:44;;;;;;;37.17;22.57;;;1.10;99.90;;;;;;5005857;28;20480;-62
2022/12/09 10:25:19;;;;;;;37.87;24.00;;;1.10;99.90;;;;;;5006671;28;20489;-62
2022/12/09 10:27:52;;;;;;;34.93;20.63;;;1.10;99.90;;;;;;5005569;28;20488;-62
2022/12/09 10:30:22;;;;;;;33.67;21.77;;;1.30;99.90;;;;;;5004086;28;20457;-63
2022/12/09 10:32:52;;;;;;;40.63;24.47;;;1.40;99.90;;;;;;5006602;28;20475;-63
2022/12/09 10:35:24;;;;;;;37.90;21.77;;;1.40;99.90;;;;;;5007529;28;20476;-63
2022/12/09 10:37:56;;;;;;;39.33;23.57;;;1.50;99.90;;;;;;5007454;28;20468;-63
2022/12/09 10:40:35;;;;;;;38.40;23.27;;;1.50;99.90;;;;;;5006249;28;20516;-63
2022/12/09 10:43:36;;;;;;;37.67;22.50;;;1.40;99.90;;;;;;5005859;28;20523;-63
2022/12/09 10:46:08;;;;;;;43.47;26.13;;;1.40;99.90;;;;;;5006010;28;20448;-63
2022/12/09 10:48:57;;;;;;;36.93;23.30;;;1.40;99.90;;;;;;5004955;28;20492;-63
2022/12/09 10:51:28;;;;;;;36.63;21.97;;;1.50;99.90;;;;;;5005329;28;20496;-63
2022/12/09 10:54:00;;;;;;;42.67;26.47;;;1.80;99.90;;;;;;5006136;28;21056;-63
2022/12/09 10:56:31;;;;;;;41.93;25.87;;;1.70;99.90;;;;;;5006764;28;20571;-62
2022/12/09 10:59:10;;;;;;;41.20;24.90;;;1.80;99.90;;;;;;5005909;28;20488;-61
2022/12/09 11:01:50;;;;;;;39.87;24.33;;;1.80;99.90;;;;;;5004631;28;20528;-63
2022/12/09 11:04:24;;;;;;;37.63;23.90;;;1.90;99.90;;;;;;5005951;28;20559;-63
2022/12/09 11:06:58;;;;;;;44.40;25.03;;;2.00;99.90;;;;;;5005882;28;21169;-62
2022/12/09 11:09:29;;;;;;;40.00;23.37;;;2.00;99.90;;;;;;5006093;28;20551;-63
2022/12/09 11:11:58;;;;;;;45.77;24.57;;;2.10;99.90;;;;;;5004729;28;20492;-63
2022/12/09 11:14:33;;;;;;;38.60;23.37;;;2.20;99.90;;;;;;5004871;28;20472;-63
2022/12/09 11:17:13;;;;;;;39.87;22.53;;;2.30;99.90;;;;;;5004650;28;20468;-63
2022/12/09 11:19:42;;;;;;;39.50;23.33;;;2.40;99.90;;;;;;5004925;28;20472;-63
2022/12/09 11:22:30;;;;;;;39.03;21.03;;;2.50;99.90;;;;;;5004218;28;20516;-63
2022/12/09 11:25:16;;;;;;;41.53;24.10;;;2.40;99.90;;;;;;5004880;28;20526;-63
2022/12/09 11:27:50;;;;;;;38.83;23.87;;;2.50;99.90;;;;;;5004421;28;21188;-63
2022/12/09 11:30:20;;;;;;;39.93;24.47;;;2.50;99.90;;;;;;5003888;28;20473;-63
2022/12/09 11:32:54;;;;;;;38.40;22.07;;;2.50;99.90;;;;;;5004503;28;21138;-62
2022/12/09 11:35:32;;;;;;;41.80;24.90;;;2.50;99.90;;;;;;5006267;28;20977;-64
2022/12/09 11:38:04;;;;;;;39.53;24.10;;;2.50;99.90;;;;;;5006353;28;20800;-63
2022/12/09 11:40:32;;;;;;;38.23;22.37;;;2.60;99.90;;;;;;5005403;28;20821;-63
2022/12/09 11:43:01;;;;;;;39.33;24.13;;;2.60;99.90;;;;;;5005980;28;20473;-60
2022/12/09 11:45:33;;;;;;;38.40;23.37;;;2.60;99.90;;;;;;5005975;28;20896;-63
2022/12/09 11:48:05;;;;;;;34.43;22.93;;;2.70;99.90;;;;;;5006782;28;20492;-63
2022/12/09 11:50:54;;;;;;;35.87;22.47;;;2.70;99.90;;;;;;5004350;28;20584;-62
2022/12/09 11:53:29;;;;;;;42.37;24.27;;;2.70;99.90;;;;;;5005331;28;21014;-62
2022/12/09 11:56:03;;;;;;;41.17;23.47;;;2.70;99.90;;;;;;5004860;28;21216;-63
2022/12/09 11:58:52;;;;;;;34.33;21.97;;;2.80;99.90;;;;;;5004957;28;20529;-63
2022/12/09 12:01:26;;;;;;;35.97;22.40;;;2.70;99.90;;;;;;5003238;28;21182;-63
2022/12/09 12:04:00;;;;;;;37.97;23.23;;;2.70;99.90;;;;;;5004871;28;20526;-63
2022/12/09 12:06:35;;;;;;;41.93;24.33;;;2.70;99.90;;;;;;5004416;28;20534;-61
2022/12/09 12:09:12;;;;;;;36.90;23.27;;;2.70;99.90;;;;;;5005039;28;20484;-62
2022/12/09 12:11:46;;;;;;;41.60;25.03;;;2.80;99.90;;;;;;5002904;28;20497;-63
2022/12/09 12:14:18;;;;;;;36.20;22.93;;;2.70;99.90;;;;;;5004851;28;20479;-64
2022/12/09 12:16:54;;;;;;;38.33;23.90;;;2.80;99.90;;;;;;5003612;28;20470;-61
2022/12/09 12:19:28;;;;;;;40.40;23.87;;;2.70;99.90;;;;;;5002380;28;20491;-64
2022/12/09 12:22:19;;;;;;;42.30;25.00;;;2.60;99.90;;;;;;5003317;28;20487;-63
2022/12/09 12:25:06;;;;;;;45.97;26.83;;;2.50;99.90;;;;;;5004532;28;20957;-63
2022/12/09 12:28:17;;;;;;;45.60;27.53;;;2.60;99.90;;;;;;5005743;28;20488;-63
2022/12/09 12:30:53;;;;;;;43.67;24.67;;;2.50;99.90;;;;;;5004367;28;20473;-63
2022/12/09 12:33:33;;;;;;;47.77;26.77;;;2.30;99.90;;;;;;5005328;28;20906;-63
2022/12/09 12:36:37;;;;;;;45.27;26.23;;;2.40;99.90;;;;;;5004082;28;20520;-62
2022/12/09 12:39:13;;;;;;;41.20;24.20;;;2.30;99.90;;;;;;5004008;28;20486;-63
2022/12/09 12:41:50;;;;;;;43.60;25.53;;;2.40;99.90;;;;;;5003166;28;20483;-61
2022/12/09 12:47:24;;;;;;;45.13;25.10;;;2.40;99.90;;;;;;5004940;28;20480;-60
2022/12/09 12:50:22;;;;;;;43.43;25.97;;;2.30;99.90;;;;;;5004129;28;20493;-63
2022/12/09 12:52:59;;;;;;;45.43;25.10;;;2.30;99.90;;;;;;5003618;28;20493;-62
2022/12/09 12:55:43;;;;;;;44.93;25.57;;;2.20;99.90;;;;;;5008087;28;20814;-61
2022/12/09 12:58:19;;;;;;;42.43;24.40;;;2.20;99.90;;;;;;5008116;28;20479;-61
2022/12/09 13:01:00;;;;;;;44.80;25.33;;;2.20;99.90;;;;;;5005978;28;20817;-63
2022/12/09 13:03:38;;;;;;;45.63;25.37;;;2.20;99.90;;;;;;5007820;28;20558;-62